sensor_id;sensor_type;location;lat;lon;timestamp;temperature;humidity
8820;DHT22;4446;50.876;4.736;2023-03-12T00:01:11;3.40;99.90
8820;DHT22;4446;50.876;4.736;2023-03-12T00:03:38;3.40;99.90
8820;DHT22;4446;50.876;4.736;2023-03-12T00:06:05;3.40;99.90
8820;DHT22;4446;50.876;4.736;2023-03-12T00:08:33;3.50;99.90
8820;DHT22;4446;50.876;4.736;2023-03-12T00:11:03;3.50;99.90
8820;DHT22;4446;50.876;4.736;2023-03-12T00:13:30;3.60;99.90
8820;DHT22;4446;50.876;4.736;2023-03-12T00:16:07;3.50;99.90
8820;DHT22;4446;50.876;4.736;2023-03-12T00:18:34;3.60;99.90
8820;DHT22;4446;50.876;4.736;2023-03-12T00:21:01;3.60;99.90
8820;DHT22;4446;50.876;4.736;2023-03-12T00:23:28;3.70;99.90
8820;DHT22;4446;50.876;4.736;2023-03-12T00:25:59;3.60;99.90
8820;DHT22;4446;50.876;4.736;2023-03-12T00:28:26;3.70;99.90
8820;DHT22;4446;50.876;4.736;2023-03-12T00:30:53;3.70;99.90
8820;DHT22;4446;50.876;4.736;2023-03-12T00:33:22;3.70;99.90
8820;DHT22;4446;50.876;4.736;2023-03-12T00:35:49;3.80;99.90
8820;DHT22;4446;50.876;4.736;2023-03-12T00:38:15;3.90;99.90
8820;DHT22;4446;50.876;4.736;2023-03-12T00:40:43;3.90;99.90
8820;DHT22;4446;50.876;4.736;2023-03-12T00:43:11;3.90;99.90
8820;DHT22;4446;50.876;4.736;2023-03-12T00:45:38;4.00;99.90
8820;DHT22;4446;50.876;4.736;2023-03-12T00:48:06;4.00;99.90
8820;DHT22;4446;50.876;4.736;2023-03-12T00:50:34;4.00;99.90
8820;DHT22;4446;50.876;4.736;2023-03-12T00:53:01;3.90;99.90
8820;DHT22;4446;50.876;4.736;2023-03-12T00:55:28;3.90;99.90
8820;DHT22;4446;50.876;4.736;2023-03-12T00:57:55;3.80;99.90
8820;DHT22;4446;50.876;4.736;2023-03-12T01:00:22;3.80;99.90
8820;DHT22;4446;50.876;4.736;2023-03-12T01:02:49;3.90;99.90
8820;DHT22;4446;50.876;4.736;2023-03-12T01:05:16;3.90;99.90
8820;DHT22;4446;50.876;4.736;2023-03-12T01:07:45;3.90;99.90
8820;DHT22;4446;50.876;4.736;2023-03-12T01:10:14;3.90;99.90
8820;DHT22;4446;50.876;4.736;2023-03-12T01:12:41;3.90;99.90
8820;DHT22;4446;50.876;4.736;2023-03-12T01:15:10;4.10;99.90
8820;DHT22;4446;50.876;4.736;2023-03-12T01:17:38;4.10;99.90
8820;DHT22;4446;50.876;4.736;2023-03-12T01:20:07;4.10;99.90
8820;DHT22;4446;50.876;4.736;2023-03-12T01:22:35;4.10;99.90
8820;DHT22;4446;50.876;4.736;2023-03-12T01:25:04;4.10;99.90
8820;DHT22;4446;50.876;4.736;2023-03-12T01:27:31;4.20;99.90
8820;DHT22;4446;50.876;4.736;2023-03-12T01:29:58;4.20;99.90
8820;DHT22;4446;50.876;4.736;2023-03-12T01:32:25;4.20;99.90
8820;DHT22;4446;50.876;4.736;2023-03-12T01:34:52;4.20;99.90
8820;DHT22;4446;50.876;4.736;2023-03-12T01:37:19;4.20;99.90
8820;DHT22;4446;50.876;4.736;2023-03-12T01:39:46;4.30;99.90
8820;DHT22;4446;50.876;4.736;2023-03-12T01:42:14;4.30;99.90
8820;DHT22;4446;50.876;4.736;2023-03-12T01:44:49;4.30;99.90
8820;DHT22;4446;50.876;4.736;2023-03-12T01:47:16;4.30;99.90
8820;DHT22;4446;50.876;4.736;2023-03-12T01:49:43;4.20;99.90
8820;DHT22;4446;50.876;4.736;2023-03-12T01:52:13;4.10;99.90
8820;DHT22;4446;50.876;4.736;2023-03-12T01:54:42;4.00;99.90
8820;DHT22;4446;50.876;4.736;2023-03-12T01:57:14;4.00;99.90
8820;DHT22;4446;50.876;4.736;2023-03-12T01:59:45;4.00;99.90
8820;DHT22;4446;50.876;4.736;2023-03-12T02:02:13;3.90;99.90
8820;DHT22;4446;50.876;4.736;2023-03-12T02:04:42;3.90;99.90
8820;DHT22;4446;50.876;4.736;2023-03-12T02:07:11;3.90;99.90
8820;DHT22;4446;50.876;4.736;2023-03-12T02:09:40;3.90;99.90
8820;DHT22;4446;50.876;4.736;2023-03-12T02:12:08;3.90;99.90
8820;DHT22;4446;50.876;4.736;2023-03-12T02:14:37;4.00;99.90
8820;DHT22;4446;50.876;4.736;2023-03-12T02:17:04;4.00;99.90
8820;DHT22;4446;50.876;4.736;2023-03-12T02:19:37;4.00;99.90
8820;DHT22;4446;50.876;4.736;2023-03-12T02:22:06;4.10;99.90
8820;DHT22;4446;50.876;4.736;2023-03-12T02:24:38;4.10;99.90
8820;DHT22;4446;50.876;4.736;2023-03-12T02:27:10;4.10;99.90
8820;DHT22;4446;50.876;4.736;2023-03-12T02:29:45;4.00;99.90
8820;DHT22;4446;50.876;4.736;2023-03-12T02:32:17;4.00;99.90
8820;DHT22;4446;50.876;4.736;2023-03-12T02:34:45;4.00;99.90
8820;DHT22;4446;50.876;4.736;2023-03-12T02:37:13;3.90;99.90
8820;DHT22;4446;50.876;4.736;2023-03-12T02:39:40;3.90;99.90
8820;DHT22;4446;50.876;4.736;2023-03-12T02:42:09;4.00;99.90
8820;DHT22;4446;50.876;4.736;2023-03-12T02:44:36;4.00;99.90
8820;DHT22;4446;50.876;4.736;2023-03-12T02:47:04;4.10;99.90
8820;DHT22;4446;50.876;4.736;2023-03-12T02:49:32;4.00;99.90
8820;DHT22;4446;50.876;4.736;2023-03-12T02:52:00;4.00;99.90
8820;DHT22;4446;50.876;4.736;2023-03-12T02:54:27;4.10;99.90
8820;DHT22;4446;50.876;4.736;2023-03-12T02:56:54;4.20;99.90
8820;DHT22;4446;50.876;4.736;2023-03-12T02:59:23;4.00;99.90
8820;DHT22;4446;50.876;4.736;2023-03-12T03:01:51;4.00;99.90
8820;DHT22;4446;50.876;4.736;2023-03-12T03:04:19;4.00;99.90
8820;DHT22;4446;50.876;4.736;2023-03-12T03:06:45;4.00;99.90
8820;DHT22;4446;50.876;4.736;2023-03-12T03:09:13;4.00;99.90
8820;DHT22;4446;50.876;4.736;2023-03-12T03:11:40;4.10;99.90
8820;DHT22;4446;50.876;4.736;2023-03-12T03:14:07;4.10;99.90
8820;DHT22;4446;50.876;4.736;2023-03-12T03:16:36;4.00;99.90
8820;DHT22;4446;50.876;4.736;2023-03-12T03:19:03;4.00;99.90
8820;DHT22;4446;50.876;4.736;2023-03-12T03:21:30;4.00;99.90
8820;DHT22;4446;50.876;4.736;2023-03-12T03:23:57;4.00;99.90
8820;DHT22;4446;50.876;4.736;2023-03-12T03:26:25;4.00;99.90
8820;DHT22;4446;50.876;4.736;2023-03-12T03:28:52;4.00;99.90
8820;DHT22;4446;50.876;4.736;2023-03-12T03:31:19;4.00;99.90
8820;DHT22;4446;50.876;4.736;2023-03-12T03:33:48;4.00;99.90
8820;DHT22;4446;50.876;4.736;2023-03-12T03:36:15;4.10;99.90
8820;DHT22;4446;50.876;4.736;2023-03-12T03:38:43;4.10;99.90
8820;DHT22;4446;50.876;4.736;2023-03-12T03:41:14;4.10;99.90
8820;DHT22;4446;50.876;4.736;2023-03-12T03:43:41;4.10;99.90
8820;DHT22;4446;50.876;4.736;2023-03-12T03:46:09;4.10;99.90
8820;DHT22;4446;50.876;4.736;2023-03-12T03:48:36;4.00;99.90
8820;DHT22;4446;50.876;4.736;2023-03-12T03:51:06;4.00;99.90
8820;DHT22;4446;50.876;4.736;2023-03-12T03:53:34;4.00;99.90
8820;DHT22;4446;50.876;4.736;2023-03-12T03:56:04;4.10;99.90
8820;DHT22;4446;50.876;4.736;2023-03-12T03:58:31;4.00;99.90
8820;DHT22;4446;50.876;4.736;2023-03-12T04:00:58;4.10;99.90
8820;DHT22;4446;50.876;4.736;2023-03-12T04:03:25;4.00;99.90
8820;DHT22;4446;50.876;4.736;2023-03-12T04:05:54;4.00;99.90
8820;DHT22;4446;50.876;4.736;2023-03-12T04:08:22;4.00;99.90
8820;DHT22;4446;50.876;4.736;2023-03-12T04:10:49;4.00;99.90
8820;DHT22;4446;50.876;4.736;2023-03-12T04:13:16;4.10;99.90
8820;DHT22;4446;50.876;4.736;2023-03-12T04:15:46;4.10;99.90
8820;DHT22;4446;50.876;4.736;2023-03-12T04:18:13;4.00;99.90
8820;DHT22;4446;50.876;4.736;2023-03-12T04:20:40;4.10;99.90
8820;DHT22;4446;50.876;4.736;2023-03-12T04:23:07;4.10;99.90
8820;DHT22;4446;50.876;4.736;2023-03-12T04:25:36;4.10;99.90
8820;DHT22;4446;50.876;4.736;2023-03-12T04:28:04;4.10;99.90
8820;DHT22;4446;50.876;4.736;2023-03-12T04:30:31;4.10;99.90
8820;DHT22;4446;50.876;4.736;2023-03-12T04:32:58;4.20;99.90
8820;DHT22;4446;50.876;4.736;2023-03-12T04:35:25;4.20;99.90
8820;DHT22;4446;50.876;4.736;2023-03-12T04:37:52;4.20;99.90
8820;DHT22;4446;50.876;4.736;2023-03-12T04:40:19;4.20;99.90
8820;DHT22;4446;50.876;4.736;2023-03-12T04:42:48;4.20;99.90
8820;DHT22;4446;50.876;4.736;2023-03-12T04:45:15;4.20;99.90
8820;DHT22;4446;50.876;4.736;2023-03-12T04:47:41;4.10;99.90
8820;DHT22;4446;50.876;4.736;2023-03-12T04:50:09;4.20;99.90
8820;DHT22;4446;50.876;4.736;2023-03-12T04:52:37;4.30;99.90
8820;DHT22;4446;50.876;4.736;2023-03-12T04:55:05;4.30;99.90
8820;DHT22;4446;50.876;4.736;2023-03-12T04:57:32;4.30;99.90
8820;DHT22;4446;50.876;4.736;2023-03-12T05:00:00;4.30;99.90
8820;DHT22;4446;50.876;4.736;2023-03-12T05:02:27;4.30;99.90
8820;DHT22;4446;50.876;4.736;2023-03-12T05:04:55;4.30;99.90
8820;DHT22;4446;50.876;4.736;2023-03-12T05:07:22;4.40;99.90
8820;DHT22;4446;50.876;4.736;2023-03-12T05:09:49;4.40;99.90
8820;DHT22;4446;50.876;4.736;2023-03-12T05:12:15;4.40;99.90
8820;DHT22;4446;50.876;4.736;2023-03-12T05:14:42;4.40;99.90
8820;DHT22;4446;50.876;4.736;2023-03-12T05:17:10;4.40;99.90
8820;DHT22;4446;50.876;4.736;2023-03-12T05:19:37;4.40;99.90
8820;DHT22;4446;50.876;4.736;2023-03-12T05:22:04;4.50;99.90
8820;DHT22;4446;50.876;4.736;2023-03-12T05:24:31;4.50;99.90
8820;DHT22;4446;50.876;4.736;2023-03-12T05:26:58;4.50;99.90
8820;DHT22;4446;50.876;4.736;2023-03-12T05:29:25;4.50;99.90
8820;DHT22;4446;50.876;4.736;2023-03-12T05:31:52;4.60;99.90
8820;DHT22;4446;50.876;4.736;2023-03-12T05:34:20;4.60;99.90
8820;DHT22;4446;50.876;4.736;2023-03-12T05:36:47;4.70;99.90
8820;DHT22;4446;50.876;4.736;2023-03-12T05:39:14;4.70;99.90
8820;DHT22;4446;50.876;4.736;2023-03-12T05:41:41;4.60;99.90
8820;DHT22;4446;50.876;4.736;2023-03-12T05:44:10;4.60;99.90
8820;DHT22;4446;50.876;4.736;2023-03-12T05:46:37;4.60;99.90
8820;DHT22;4446;50.876;4.736;2023-03-12T05:49:04;4.60;99.90
8820;DHT22;4446;50.876;4.736;2023-03-12T05:51:33;4.60;99.90
8820;DHT22;4446;50.876;4.736;2023-03-12T05:54:00;4.70;99.90
8820;DHT22;4446;50.876;4.736;2023-03-12T05:56:27;4.70;99.90
8820;DHT22;4446;50.876;4.736;2023-03-12T05:58:54;4.70;99.90
8820;DHT22;4446;50.876;4.736;2023-03-12T06:01:23;4.70;99.90
8820;DHT22;4446;50.876;4.736;2023-03-12T06:03:50;4.80;99.90
8820;DHT22;4446;50.876;4.736;2023-03-12T06:06:17;4.90;99.90
8820;DHT22;4446;50.876;4.736;2023-03-12T06:08:46;4.90;99.90
8820;DHT22;4446;50.876;4.736;2023-03-12T06:11:13;5.00;99.90
8820;DHT22;4446;50.876;4.736;2023-03-12T06:13:40;5.00;99.90
8820;DHT22;4446;50.876;4.736;2023-03-12T06:16:10;5.00;99.90
8820;DHT22;4446;50.876;4.736;2023-03-12T06:18:37;5.20;99.90
8820;DHT22;4446;50.876;4.736;2023-03-12T06:21:10;5.20;99.90
8820;DHT22;4446;50.876;4.736;2023-03-12T06:23:37;5.20;99.90
8820;DHT22;4446;50.876;4.736;2023-03-12T06:26:06;5.30;99.90
8820;DHT22;4446;50.876;4.736;2023-03-12T06:28:34;5.30;99.90
8820;DHT22;4446;50.876;4.736;2023-03-12T06:31:01;5.30;99.90
8820;DHT22;4446;50.876;4.736;2023-03-12T06:33:28;5.40;99.90
8820;DHT22;4446;50.876;4.736;2023-03-12T06:35:56;5.50;99.90
8820;DHT22;4446;50.876;4.736;2023-03-12T06:38:24;5.60;99.90
8820;DHT22;4446;50.876;4.736;2023-03-12T06:40:55;5.60;99.90
8820;DHT22;4446;50.876;4.736;2023-03-12T06:43:24;5.60;99.90
8820;DHT22;4446;50.876;4.736;2023-03-12T06:45:54;5.70;99.90
8820;DHT22;4446;50.876;4.736;2023-03-12T06:48:21;5.70;99.90
8820;DHT22;4446;50.876;4.736;2023-03-12T06:50:48;5.80;99.90
8820;DHT22;4446;50.876;4.736;2023-03-12T06:53:16;5.90;99.90
8820;DHT22;4446;50.876;4.736;2023-03-12T06:55:43;5.90;99.90
8820;DHT22;4446;50.876;4.736;2023-03-12T06:58:11;6.00;99.90
8820;DHT22;4446;50.876;4.736;2023-03-12T07:00:39;6.00;99.90
8820;DHT22;4446;50.876;4.736;2023-03-12T07:03:06;6.10;99.90
8820;DHT22;4446;50.876;4.736;2023-03-12T07:05:33;6.20;99.90
8820;DHT22;4446;50.876;4.736;2023-03-12T07:08:00;6.30;99.90
8820;DHT22;4446;50.876;4.736;2023-03-12T07:10:27;6.40;99.90
8820;DHT22;4446;50.876;4.736;2023-03-12T07:12:54;6.40;99.90
8820;DHT22;4446;50.876;4.736;2023-03-12T07:15:22;6.50;99.90
8820;DHT22;4446;50.876;4.736;2023-03-12T07:17:50;6.50;99.90
8820;DHT22;4446;50.876;4.736;2023-03-12T07:20:17;6.60;99.90
8820;DHT22;4446;50.876;4.736;2023-03-12T07:22:44;6.70;99.90
8820;DHT22;4446;50.876;4.736;2023-03-12T07:25:11;6.80;99.90
8820;DHT22;4446;50.876;4.736;2023-03-12T07:27:38;6.80;99.90
8820;DHT22;4446;50.876;4.736;2023-03-12T07:30:06;6.90;99.90
8820;DHT22;4446;50.876;4.736;2023-03-12T07:32:34;6.90;99.90
8820;DHT22;4446;50.876;4.736;2023-03-12T07:35:07;7.00;99.90
8820;DHT22;4446;50.876;4.736;2023-03-12T07:37:35;7.10;99.90
8820;DHT22;4446;50.876;4.736;2023-03-12T07:40:02;7.10;99.90
8820;DHT22;4446;50.876;4.736;2023-03-12T07:42:31;7.20;99.90
8820;DHT22;4446;50.876;4.736;2023-03-12T07:44:58;7.30;99.90
8820;DHT22;4446;50.876;4.736;2023-03-12T07:47:25;7.30;99.90
8820;DHT22;4446;50.876;4.736;2023-03-12T07:49:52;7.40;99.90
8820;DHT22;4446;50.876;4.736;2023-03-12T07:52:20;7.40;99.90
8820;DHT22;4446;50.876;4.736;2023-03-12T07:54:48;7.50;99.90
8820;DHT22;4446;50.876;4.736;2023-03-12T07:57:17;7.50;99.90
8820;DHT22;4446;50.876;4.736;2023-03-12T07:59:45;7.60;99.90
8820;DHT22;4446;50.876;4.736;2023-03-12T08:02:12;7.80;99.90
8820;DHT22;4446;50.876;4.736;2023-03-12T08:04:39;7.80;99.90
8820;DHT22;4446;50.876;4.736;2023-03-12T08:07:06;7.90;99.90
8820;DHT22;4446;50.876;4.736;2023-03-12T08:09:34;8.00;99.90
8820;DHT22;4446;50.876;4.736;2023-03-12T08:12:03;8.00;99.90
8820;DHT22;4446;50.876;4.736;2023-03-12T08:14:30;8.00;99.90
8820;DHT22;4446;50.876;4.736;2023-03-12T08:16:57;8.10;99.90
8820;DHT22;4446;50.876;4.736;2023-03-12T08:19:25;8.10;99.90
8820;DHT22;4446;50.876;4.736;2023-03-12T08:21:52;8.20;99.90
8820;DHT22;4446;50.876;4.736;2023-03-12T08:24:20;8.20;99.90
8820;DHT22;4446;50.876;4.736;2023-03-12T08:26:48;8.30;99.90
8820;DHT22;4446;50.876;4.736;2023-03-12T08:29:16;8.50;99.90
8820;DHT22;4446;50.876;4.736;2023-03-12T08:31:43;8.50;99.90
8820;DHT22;4446;50.876;4.736;2023-03-12T08:34:09;8.60;99.90
8820;DHT22;4446;50.876;4.736;2023-03-12T08:36:37;8.60;99.90
8820;DHT22;4446;50.876;4.736;2023-03-12T08:39:04;8.70;99.90
8820;DHT22;4446;50.876;4.736;2023-03-12T08:41:31;8.70;99.90
8820;DHT22;4446;50.876;4.736;2023-03-12T08:43:59;8.80;99.90
8820;DHT22;4446;50.876;4.736;2023-03-12T08:46:26;8.90;99.90
8820;DHT22;4446;50.876;4.736;2023-03-12T08:48:54;8.90;99.90
8820;DHT22;4446;50.876;4.736;2023-03-12T08:51:21;9.00;99.90
8820;DHT22;4446;50.876;4.736;2023-03-12T08:53:48;9.00;99.90
8820;DHT22;4446;50.876;4.736;2023-03-12T08:56:15;9.10;99.90
8820;DHT22;4446;50.876;4.736;2023-03-12T08:58:41;9.20;99.90
8820;DHT22;4446;50.876;4.736;2023-03-12T09:01:11;9.30;99.90
8820;DHT22;4446;50.876;4.736;2023-03-12T09:03:39;9.40;99.90
8820;DHT22;4446;50.876;4.736;2023-03-12T09:06:08;9.50;99.90
8820;DHT22;4446;50.876;4.736;2023-03-12T09:08:38;9.60;99.90
8820;DHT22;4446;50.876;4.736;2023-03-12T09:11:05;9.70;99.90
8820;DHT22;4446;50.876;4.736;2023-03-12T09:13:32;9.80;99.90
8820;DHT22;4446;50.876;4.736;2023-03-12T09:16:00;9.90;99.90
8820;DHT22;4446;50.876;4.736;2023-03-12T09:18:29;9.90;99.90
8820;DHT22;4446;50.876;4.736;2023-03-12T09:20:56;9.90;99.90
8820;DHT22;4446;50.876;4.736;2023-03-12T09:23:23;10.00;99.90
8820;DHT22;4446;50.876;4.736;2023-03-12T09:25:50;10.10;99.90
8820;DHT22;4446;50.876;4.736;2023-03-12T09:28:18;10.40;99.90
8820;DHT22;4446;50.876;4.736;2023-03-12T09:30:45;10.60;99.90
8820;DHT22;4446;50.876;4.736;2023-03-12T09:33:12;10.60;99.90
8820;DHT22;4446;50.876;4.736;2023-03-12T09:35:42;10.70;99.90
8820;DHT22;4446;50.876;4.736;2023-03-12T09:38:12;10.80;99.90
8820;DHT22;4446;50.876;4.736;2023-03-12T09:40:43;10.90;99.90
8820;DHT22;4446;50.876;4.736;2023-03-12T09:43:17;11.00;99.90
8820;DHT22;4446;50.876;4.736;2023-03-12T09:45:46;10.90;99.90
8820;DHT22;4446;50.876;4.736;2023-03-12T09:48:17;10.90;99.90
8820;DHT22;4446;50.876;4.736;2023-03-12T09:50:48;10.90;99.90
8820;DHT22;4446;50.876;4.736;2023-03-12T09:53:20;11.00;99.90
8820;DHT22;4446;50.876;4.736;2023-03-12T09:55:49;11.00;99.90
8820;DHT22;4446;50.876;4.736;2023-03-12T09:58:21;11.00;99.90
8820;DHT22;4446;50.876;4.736;2023-03-12T10:00:52;11.00;99.90
8820;DHT22;4446;50.876;4.736;2023-03-12T10:03:28;11.10;99.90
8820;DHT22;4446;50.876;4.736;2023-03-12T10:06:07;11.20;99.90
8820;DHT22;4446;50.876;4.736;2023-03-12T10:08:46;11.40;99.90
8820;DHT22;4446;50.876;4.736;2023-03-12T10:11:23;11.70;99.90
8820;DHT22;4446;50.876;4.736;2023-03-12T10:14:09;11.90;99.90
8820;DHT22;4446;50.876;4.736;2023-03-12T10:16:48;12.00;99.90
8820;DHT22;4446;50.876;4.736;2023-03-12T10:19:27;12.10;99.90
8820;DHT22;4446;50.876;4.736;2023-03-12T10:22:02;12.10;99.90
8820;DHT22;4446;50.876;4.736;2023-03-12T10:24:42;12.30;99.90
8820;DHT22;4446;50.876;4.736;2023-03-12T10:27:13;12.40;99.90
8820;DHT22;4446;50.876;4.736;2023-03-12T10:29:41;12.50;99.90
8820;DHT22;4446;50.876;4.736;2023-03-12T10:32:14;12.60;99.90
8820;DHT22;4446;50.876;4.736;2023-03-12T10:34:45;12.60;99.90
8820;DHT22;4446;50.876;4.736;2023-03-12T10:37:17;12.60;99.90
8820;DHT22;4446;50.876;4.736;2023-03-12T10:39:47;12.50;99.90
8820;DHT22;4446;50.876;4.736;2023-03-12T10:42:20;12.40;99.90
8820;DHT22;4446;50.876;4.736;2023-03-12T10:44:50;12.50;99.90
8820;DHT22;4446;50.876;4.736;2023-03-12T10:47:34;12.50;99.90
8820;DHT22;4446;50.876;4.736;2023-03-12T10:50:18;12.60;99.90
8820;DHT22;4446;50.876;4.736;2023-03-12T10:52:48;12.70;99.90
8820;DHT22;4446;50.876;4.736;2023-03-12T10:55:20;12.80;99.90
8820;DHT22;4446;50.876;4.736;2023-03-12T10:57:48;12.80;99.90
8820;DHT22;4446;50.876;4.736;2023-03-12T11:00:21;13.00;99.90
8820;DHT22;4446;50.876;4.736;2023-03-12T11:02:56;12.90;99.90
8820;DHT22;4446;50.876;4.736;2023-03-12T11:05:25;13.00;99.90
8820;DHT22;4446;50.876;4.736;2023-03-12T11:07:55;13.00;99.90
8820;DHT22;4446;50.876;4.736;2023-03-12T11:10:25;13.20;99.90
8820;DHT22;4446;50.876;4.736;2023-03-12T11:12:59;13.30;99.90
8820;DHT22;4446;50.876;4.736;2023-03-12T11:15:29;13.70;99.90
8820;DHT22;4446;50.876;4.736;2023-03-12T11:18:32;13.80;99.90
8820;DHT22;4446;50.876;4.736;2023-03-12T11:21:15;13.80;99.90
8820;DHT22;4446;50.876;4.736;2023-03-12T11:26:36;13.50;99.90
8820;DHT22;4446;50.876;4.736;2023-03-12T11:29:11;13.40;99.90
8820;DHT22;4446;50.876;4.736;2023-03-12T11:31:45;13.50;99.90
8820;DHT22;4446;50.876;4.736;2023-03-12T11:34:21;13.50;99.90
8820;DHT22;4446;50.876;4.736;2023-03-12T11:36:54;13.60;99.90
8820;DHT22;4446;50.876;4.736;2023-03-12T11:39:38;13.60;99.90
8820;DHT22;4446;50.876;4.736;2023-03-12T11:42:23;13.70;99.90
8820;DHT22;4446;50.876;4.736;2023-03-12T11:45:05;13.60;99.90
8820;DHT22;4446;50.876;4.736;2023-03-12T11:47:52;13.60;99.90
8820;DHT22;4446;50.876;4.736;2023-03-12T11:50:32;13.60;99.90
8820;DHT22;4446;50.876;4.736;2023-03-12T11:53:29;13.60;99.90
8820;DHT22;4446;50.876;4.736;2023-03-12T11:56:18;13.60;99.90
8820;DHT22;4446;50.876;4.736;2023-03-12T12:02:00;13.60;99.90
8820;DHT22;4446;50.876;4.736;2023-03-12T12:07:52;13.50;99.90
8820;DHT22;4446;50.876;4.736;2023-03-12T12:10:26;13.50;99.90
8820;DHT22;4446;50.876;4.736;2023-03-12T12:13:05;13.60;99.90
8820;DHT22;4446;50.876;4.736;2023-03-12T12:15:37;13.70;99.90
8820;DHT22;4446;50.876;4.736;2023-03-12T12:18:28;13.70;99.90
8820;DHT22;4446;50.876;4.736;2023-03-12T12:21:02;13.60;99.90
8820;DHT22;4446;50.876;4.736;2023-03-12T12:23:43;13.40;99.90
8820;DHT22;4446;50.876;4.736;2023-03-12T12:26:13;13.40;99.90
8820;DHT22;4446;50.876;4.736;2023-03-12T12:29:04;13.50;99.90
8820;DHT22;4446;50.876;4.736;2023-03-12T12:31:45;13.50;99.90
8820;DHT22;4446;50.876;4.736;2023-03-12T12:34:42;13.40;99.90
8820;DHT22;4446;50.876;4.736;2023-03-12T12:37:20;13.40;99.90
8820;DHT22;4446;50.876;4.736;2023-03-12T12:39:53;13.40;99.90
8820;DHT22;4446;50.876;4.736;2023-03-12T12:42:26;13.40;99.90
8820;DHT22;4446;50.876;4.736;2023-03-12T12:44:59;13.40;99.90
8820;DHT22;4446;50.876;4.736;2023-03-12T12:47:35;13.30;99.90
8820;DHT22;4446;50.876;4.736;2023-03-12T12:50:06;13.50;99.90
8820;DHT22;4446;50.876;4.736;2023-03-12T12:52:33;13.80;99.90
8820;DHT22;4446;50.876;4.736;2023-03-12T12:55:05;14.00;99.90
8820;DHT22;4446;50.876;4.736;2023-03-12T12:57:38;14.10;99.90
8820;DHT22;4446;50.876;4.736;2023-03-12T13:00:35;14.00;99.90
8820;DHT22;4446;50.876;4.736;2023-03-12T13:03:04;14.10;99.90
8820;DHT22;4446;50.876;4.736;2023-03-12T13:05:43;13.90;99.90
8820;DHT22;4446;50.876;4.736;2023-03-12T13:08:32;13.90;99.90
8820;DHT22;4446;50.876;4.736;2023-03-12T13:11:04;13.90;99.90
8820;DHT22;4446;50.876;4.736;2023-03-12T13:13:31;13.90;99.90
8820;DHT22;4446;50.876;4.736;2023-03-12T13:16:28;14.00;99.90
8820;DHT22;4446;50.876;4.736;2023-03-12T13:18:59;14.10;99.90
8820;DHT22;4446;50.876;4.736;2023-03-12T13:21:32;14.00;99.90
8820;DHT22;4446;50.876;4.736;2023-03-12T13:24:22;13.80;99.90
8820;DHT22;4446;50.876;4.736;2023-03-12T13:26:55;13.70;99.90
8820;DHT22;4446;50.876;4.736;2023-03-12T13:29:36;13.70;99.90
8820;DHT22;4446;50.876;4.736;2023-03-12T13:32:08;13.70;99.90
8820;DHT22;4446;50.876;4.736;2023-03-12T13:34:43;13.70;99.90
8820;DHT22;4446;50.876;4.736;2023-03-12T13:40:00;13.60;99.90
8820;DHT22;4446;50.876;4.736;2023-03-12T13:42:38;13.80;99.90
8820;DHT22;4446;50.876;4.736;2023-03-12T13:45:26;13.80;99.90
8820;DHT22;4446;50.876;4.736;2023-03-12T13:47:59;13.60;99.90
8820;DHT22;4446;50.876;4.736;2023-03-12T13:50:29;13.50;99.90
8820;DHT22;4446;50.876;4.736;2023-03-12T13:53:02;13.40;99.90
8820;DHT22;4446;50.876;4.736;2023-03-12T13:55:31;13.50;99.90
8820;DHT22;4446;50.876;4.736;2023-03-12T13:58:05;13.50;99.90
8820;DHT22;4446;50.876;4.736;2023-03-12T14:00:38;13.50;99.90
8820;DHT22;4446;50.876;4.736;2023-03-12T14:03:13;13.60;99.90
8820;DHT22;4446;50.876;4.736;2023-03-12T14:05:49;13.70;99.90
8820;DHT22;4446;50.876;4.736;2023-03-12T14:11:27;13.80;99.90
8820;DHT22;4446;50.876;4.736;2023-03-12T14:17:14;14.00;99.90
8820;DHT22;4446;50.876;4.736;2023-03-12T14:19:46;14.20;99.90
8820;DHT22;4446;50.876;4.736;2023-03-12T14:22:13;14.20;99.90
8820;DHT22;4446;50.876;4.736;2023-03-12T14:24:47;14.10;99.90
8820;DHT22;4446;50.876;4.736;2023-03-12T14:27:19;13.90;99.90
8820;DHT22;4446;50.876;4.736;2023-03-12T14:29:51;13.70;99.90
8820;DHT22;4446;50.876;4.736;2023-03-12T14:32:22;13.60;99.90
8820;DHT22;4446;50.876;4.736;2023-03-12T14:34:56;13.70;99.90
8820;DHT22;4446;50.876;4.736;2023-03-12T14:37:29;13.70;99.90
8820;DHT22;4446;50.876;4.736;2023-03-12T14:40:00;13.60;99.90
8820;DHT22;4446;50.876;4.736;2023-03-12T14:42:30;13.60;99.90
8820;DHT22;4446;50.876;4.736;2023-03-12T14:44:58;13.60;99.90
8820;DHT22;4446;50.876;4.736;2023-03-12T14:47:26;13.50;99.90
8820;DHT22;4446;50.876;4.736;2023-03-12T14:49:56;13.50;99.90
8820;DHT22;4446;50.876;4.736;2023-03-12T14:52:25;13.40;99.90
8820;DHT22;4446;50.876;4.736;2023-03-12T14:54:54;13.40;99.90
8820;DHT22;4446;50.876;4.736;2023-03-12T14:57:22;13.50;99.90
8820;DHT22;4446;50.876;4.736;2023-03-12T14:59:53;13.40;99.90
8820;DHT22;4446;50.876;4.736;2023-03-12T15:02:20;13.40;99.90
8820;DHT22;4446;50.876;4.736;2023-03-12T15:04:49;13.30;99.90
8820;DHT22;4446;50.876;4.736;2023-03-12T15:07:22;13.40;99.90
8820;DHT22;4446;50.876;4.736;2023-03-12T15:09:50;13.40;99.90
8820;DHT22;4446;50.876;4.736;2023-03-12T15:12:20;13.50;99.90
8820;DHT22;4446;50.876;4.736;2023-03-12T15:14:49;13.50;99.90
8820;DHT22;4446;50.876;4.736;2023-03-12T15:17:19;13.60;99.90
8820;DHT22;4446;50.876;4.736;2023-03-12T15:19:47;13.60;99.90
8820;DHT22;4446;50.876;4.736;2023-03-12T15:22:18;13.70;99.90
8820;DHT22;4446;50.876;4.736;2023-03-12T15:24:47;13.70;99.90
8820;DHT22;4446;50.876;4.736;2023-03-12T15:27:20;13.70;99.90
8820;DHT22;4446;50.876;4.736;2023-03-12T15:29:47;13.70;99.90
8820;DHT22;4446;50.876;4.736;2023-03-12T15:32:16;13.60;99.90
8820;DHT22;4446;50.876;4.736;2023-03-12T15:34:45;13.50;99.90
8820;DHT22;4446;50.876;4.736;2023-03-12T15:37:23;13.40;99.90
8820;DHT22;4446;50.876;4.736;2023-03-12T15:39:55;13.20;99.90
8820;DHT22;4446;50.876;4.736;2023-03-12T15:42:23;13.10;99.90
8820;DHT22;4446;50.876;4.736;2023-03-12T15:44:52;13.10;99.90
8820;DHT22;4446;50.876;4.736;2023-03-12T15:47:23;13.10;99.90
8820;DHT22;4446;50.876;4.736;2023-03-12T15:49:53;13.10;99.90
8820;DHT22;4446;50.876;4.736;2023-03-12T15:52:28;13.00;99.90
8820;DHT22;4446;50.876;4.736;2023-03-12T15:55:04;13.00;99.90
8820;DHT22;4446;50.876;4.736;2023-03-12T15:57:33;13.00;99.90
8820;DHT22;4446;50.876;4.736;2023-03-12T16:00:17;13.10;99.90
8820;DHT22;4446;50.876;4.736;2023-03-12T16:02:53;13.00;99.90
8820;DHT22;4446;50.876;4.736;2023-03-12T16:05:55;12.90;99.90
8820;DHT22;4446;50.876;4.736;2023-03-12T16:08:33;12.80;99.90
8820;DHT22;4446;50.876;4.736;2023-03-12T16:11:02;12.90;99.90
8820;DHT22;4446;50.876;4.736;2023-03-12T16:13:30;12.90;99.90
8820;DHT22;4446;50.876;4.736;2023-03-12T16:15:58;12.80;99.90
8820;DHT22;4446;50.876;4.736;2023-03-12T16:18:26;12.80;99.90
8820;DHT22;4446;50.876;4.736;2023-03-12T16:20:53;12.70;99.90
8820;DHT22;4446;50.876;4.736;2023-03-12T16:23:21;12.80;99.90
8820;DHT22;4446;50.876;4.736;2023-03-12T16:25:51;12.70;99.90
8820;DHT22;4446;50.876;4.736;2023-03-12T16:28:20;12.80;99.90
8820;DHT22;4446;50.876;4.736;2023-03-12T16:30:48;12.80;99.90
8820;DHT22;4446;50.876;4.736;2023-03-12T16:33:18;12.70;99.90
8820;DHT22;4446;50.876;4.736;2023-03-12T16:35:45;12.70;99.90
8820;DHT22;4446;50.876;4.736;2023-03-12T16:38:12;12.60;99.90
8820;DHT22;4446;50.876;4.736;2023-03-12T16:40:43;12.60;99.90
8820;DHT22;4446;50.876;4.736;2023-03-12T16:43:16;12.60;99.90
8820;DHT22;4446;50.876;4.736;2023-03-12T16:45:44;12.60;99.90
8820;DHT22;4446;50.876;4.736;2023-03-12T16:48:15;12.50;99.90
8820;DHT22;4446;50.876;4.736;2023-03-12T16:50:46;12.40;99.90